SAWHSARI

Guest
Details From SAWH - Ushuaia_Intl_Islas Malvinas
To SARI - CATARATAS DEL IGUAZU
Flight Number -
Tags decoded
Created
Modified
Stats Distance 2,152 nm / 3,986 km
Max Altitude 0 ft / 0 m
Waypoints 5
Social Downloads 0
Likes 0
Share VATSIM

Download

Looking for another format? Having issues loading an existing format? Contact us
Advertisement - Login to hide

Notes

Requested: SAWH ERVAS EZE UW29 GBE UA570 DIL UT662 GRA SARI Unmatched points: ERVAS UW29 UT662

Route

SAWH EZE GBE UA570 DIL SARI

ID Type Via Altitude Latitude Longitude Leg Dist Tot Dist Heading (true) Name
O SAWH APT - 0 ft / 0 m -54.84331˚ -68.29490˚ - 0 nm - Ushuaia_Intl_Islas Malvinas
EZE VOR - 0 ft / 0 m -34.82417˚ -58.53528˚ 1269 nm 1269 nm 23° / 16° EZEIZA VOR-DME
GBE VOR - 0 ft / 0 m -35.75111˚ -58.46389˚ 55 nm 1325 nm 176° / 176° GENERAL BELGRANO VOR
DIL VOR UA570 (AWY-HI) 0 ft / 0 m -37.22500˚ -59.22944˚ 95 nm 1420 nm 202° / 203° TANDIL VOR-DME
O SARI APT - 0 ft / 0 m -25.73728˚ -54.47344˚ 731 nm 2152 nm 21° / 18° CATARATAS DEL IGUAZU

Altitude Profile

Advertisement - Login to hide

Weather


0- 5 10 15 20 25 30 35+ Temperature / ° C

Clouds and Precipitation
Forecast for 2018-05-25 06:00 UTC. Updated 6 minutes ago

Ground ~20,000 ft ~40,000 ft Winds

SAWH

Details ICAO SAWH (USH)
Name Ushuaia_Intl_Islas Malvinas
Region Argentina
Timezone America/Argentina/Ushuaia (UTC-3.0)
Stats Elevation 91 ft / 28 m (AMSL)
Location -54.843310° -68.294897°
Runways 1
Magnetic Variation 12.376° E

METAR

SAWH 250500Z 36009KT 9999 FEW040 SCT100 05/02 Q0997

Decode

TAF

TAF SAWH 242300Z 2500/2524 VRB07KT 9999 BKN030 BKN040 TX06/2519Z TN02/2510Z BECMG 2514/2516 5000 RA OVC012

Decode

Departure Runways

ID Width Length Bearing (true) Bearing (mag) Surface Threshold Offset Overrun Length
07 148 ft / 45 m 9,531 ft / 2,905 m 86.11° 73.73° Concrete 591 ft / 180 m 295 ft / 90 m
25 148 ft / 45 m 9,531 ft / 2,905 m 266.08° 253.70° Concrete 899 ft / 274 m 98 ft / 30 m

SARI

Details ICAO SARI (IGR)
Name CATARATAS DEL IGUAZU
Region Argentina
Timezone America/Argentina/Cordoba (UTC-3.0)
Stats Elevation 916 ft / 279 m (AMSL)
Location -25.737279° -54.473444°
Runways 1
Magnetic Variation 16.323° W

METAR

SARI 250500Z 00000KT CAVOK 15/14 Q1021

Decode

TAF

TAF SARI 242300Z 2500/2524 VRB03KT CAVOK TX24/2518Z TN09/2510Z PROB40 2507/2511 3000 BR NSC

Decode

Destination Runways

ID Width Length Bearing (true) Bearing (mag) Surface Threshold Offset Overrun Length
13 148 ft / 45 m 10,822 ft / 3,298 m 114.88° 131.20° Asphalt 0 ft / 0 m 95 ft / 29 m
31 148 ft / 45 m 10,822 ft / 3,298 m 294.87° 311.19° Asphalt 0 ft / 0 m 95 ft / 29 m

Approach Navaids

Runway Type Ident Frequency Range Bearing (true) Bearing (mag) Slope Elevation
31 Localiser IG 110.90 MHz 18 nm / 33 km 294.89° 311.21° - 920 ft / 280 m (AMSL)
31 Glidescope IG 110.90 MHz 10 nm / 19 km 294.88° 311.20° 3.00° 958 ft / 292 m (AMSL)
31 DME IG 110.90 MHz 18 nm / 33 km - - - 958 ft / 292 m (AMSL)

Popular Alternatives